Pagrindinis puslapis
METAR-TAF:

METAR-TAF

Oro uostai :

Khon Kaen, Tailandas

platuma: 16-26N, ilguma: 102-50E, Aukštis: 165 m

Dabartinis oras

Ataskaita buvo paskelbta 1 valandą ir 1 minutes, ne 22:00 UTC
Vėjas 5 kt iš Šiaurės
Temperatūra 19°C
Drėgmė 88%
Slėgis 1016 hPa
Matomumas: 9000 m

METAR: VTUK 292200Z 36005KT 9000 NSC 19/17 Q1016 NOSIG

Laikas: 06:01 (23:01 UTC)

Prognozė

Ataskaita buvo paskelbta 6 valandos ir 1 minutes, ne 17:00 UTC
Prognozė galioja nuo 29 metu 18 UTC su 30 metu 18 UTC
Vėjas 6 kt iš Šiaurės Rytų
Matomumas: 9000 m
Mažai debesys ne aukštis 3000 ft

TAF: VTUK 291700Z 2918/3018 04006KT 9000 FEW030

Orai ataskaitas ir orų prognozės (METAR, TAF).

turimą stotys yra geltonos ir raudonos taškus žemėlapyje.

Perkelti pele per norėdami pamatyti stoties vardą.

Tada spustelėkite, norėdami matyti oro stebėjimo ir prognozės.

Norėdami pakeisti žemėlapį: spustelėkite ant žalios mygtukų su juodo kryžiaus žemyn,; žalią mygtuką su brūkšneliu, jei norite nutolinti; arba žalių rodyklių gretimoms žemėlapius.


METAR-TAF: